sensor_id;sensor_type;location;lat;lon;timestamp;temperature;humidity
53878;DHT22;39790;53.144;6.424;2022-08-19T00:01:27;16.90;99.90
53878;DHT22;39790;53.144;6.424;2022-08-19T00:03:55;16.90;99.90
53878;DHT22;39790;53.144;6.424;2022-08-19T00:06:21;16.90;99.90
53878;DHT22;39790;53.144;6.424;2022-08-19T00:08:47;17.00;99.90
53878;DHT22;39790;53.144;6.424;2022-08-19T00:11:13;17.00;99.90
53878;DHT22;39790;53.144;6.424;2022-08-19T00:13:39;17.10;99.90
53878;DHT22;39790;53.144;6.424;2022-08-19T00:16:08;17.10;99.90
53878;DHT22;39790;53.144;6.424;2022-08-19T00:18:34;17.20;99.90
53878;DHT22;39790;53.144;6.424;2022-08-19T00:20:59;17.20;99.90
53878;DHT22;39790;53.144;6.424;2022-08-19T00:23:26;17.20;99.90
53878;DHT22;39790;53.144;6.424;2022-08-19T00:25:52;17.20;99.90
53878;DHT22;39790;53.144;6.424;2022-08-19T00:28:20;17.30;99.90
53878;DHT22;39790;53.144;6.424;2022-08-19T00:30:46;17.30;99.90
53878;DHT22;39790;53.144;6.424;2022-08-19T00:33:12;17.30;99.90
53878;DHT22;39790;53.144;6.424;2022-08-19T00:35:39;17.30;99.90
53878;DHT22;39790;53.144;6.424;2022-08-19T00:38:04;17.30;99.90
53878;DHT22;39790;53.144;6.424;2022-08-19T00:40:32;17.30;99.90
53878;DHT22;39790;53.144;6.424;2022-08-19T00:42:58;17.20;99.90
53878;DHT22;39790;53.144;6.424;2022-08-19T00:45:28;17.20;99.90
53878;DHT22;39790;53.144;6.424;2022-08-19T00:47:57;17.20;99.90
53878;DHT22;39790;53.144;6.424;2022-08-19T00:50:23;17.20;99.90
53878;DHT22;39790;53.144;6.424;2022-08-19T00:52:50;17.20;99.90
53878;DHT22;39790;53.144;6.424;2022-08-19T00:55:22;17.20;99.90
53878;DHT22;39790;53.144;6.424;2022-08-19T00:58:04;17.20;99.90
53878;DHT22;39790;53.144;6.424;2022-08-19T01:00:31;17.10;99.90
53878;DHT22;39790;53.144;6.424;2022-08-19T01:02:59;17.10;99.90
53878;DHT22;39790;53.144;6.424;2022-08-19T01:05:28;17.00;99.90
53878;DHT22;39790;53.144;6.424;2022-08-19T01:07:56;17.10;99.90
53878;DHT22;39790;53.144;6.424;2022-08-19T01:10:25;17.10;99.90
53878;DHT22;39790;53.144;6.424;2022-08-19T01:12:52;17.10;99.90
53878;DHT22;39790;53.144;6.424;2022-08-19T01:15:26;17.00;99.90
53878;DHT22;39790;53.144;6.424;2022-08-19T01:17:53;17.00;99.90
53878;DHT22;39790;53.144;6.424;2022-08-19T01:20:23;17.00;99.90
53878;DHT22;39790;53.144;6.424;2022-08-19T01:22:53;17.10;99.90
53878;DHT22;39790;53.144;6.424;2022-08-19T01:25:22;17.00;99.90
53878;DHT22;39790;53.144;6.424;2022-08-19T01:27:50;17.00;99.90
53878;DHT22;39790;53.144;6.424;2022-08-19T01:30:21;16.90;99.90
53878;DHT22;39790;53.144;6.424;2022-08-19T01:32:48;16.90;99.90
53878;DHT22;39790;53.144;6.424;2022-08-19T01:35:15;16.90;99.90
53878;DHT22;39790;53.144;6.424;2022-08-19T01:38:04;16.80;99.90
53878;DHT22;39790;53.144;6.424;2022-08-19T01:40:37;16.80;99.90
53878;DHT22;39790;53.144;6.424;2022-08-19T01:43:04;16.70;99.90
53878;DHT22;39790;53.144;6.424;2022-08-19T01:45:33;16.70;99.90
53878;DHT22;39790;53.144;6.424;2022-08-19T01:48:00;16.70;99.90
53878;DHT22;39790;53.144;6.424;2022-08-19T01:50:26;16.60;99.90
53878;DHT22;39790;53.144;6.424;2022-08-19T01:52:52;16.60;99.90
53878;DHT22;39790;53.144;6.424;2022-08-19T01:55:19;16.50;99.90
53878;DHT22;39790;53.144;6.424;2022-08-19T01:57:49;16.50;99.90
53878;DHT22;39790;53.144;6.424;2022-08-19T02:00:19;16.50;99.90
53878;DHT22;39790;53.144;6.424;2022-08-19T02:02:46;16.50;99.90
53878;DHT22;39790;53.144;6.424;2022-08-19T02:05:12;16.50;99.90
53878;DHT22;39790;53.144;6.424;2022-08-19T02:07:39;16.50;99.90
53878;DHT22;39790;53.144;6.424;2022-08-19T02:10:09;16.50;99.90
53878;DHT22;39790;53.144;6.424;2022-08-19T02:12:34;16.50;99.90
53878;DHT22;39790;53.144;6.424;2022-08-19T02:15:01;16.40;99.90
53878;DHT22;39790;53.144;6.424;2022-08-19T02:17:28;16.50;99.90
53878;DHT22;39790;53.144;6.424;2022-08-19T02:19:58;16.50;99.90
53878;DHT22;39790;53.144;6.424;2022-08-19T02:22:24;16.50;99.90
53878;DHT22;39790;53.144;6.424;2022-08-19T02:24:52;16.50;99.90
53878;DHT22;39790;53.144;6.424;2022-08-19T02:27:17;16.50;99.90
53878;DHT22;39790;53.144;6.424;2022-08-19T02:29:45;16.50;99.90
53878;DHT22;39790;53.144;6.424;2022-08-19T02:32:11;16.50;99.90
53878;DHT22;39790;53.144;6.424;2022-08-19T02:34:37;16.40;99.90
53878;DHT22;39790;53.144;6.424;2022-08-19T02:37:02;16.40;99.90
53878;DHT22;39790;53.144;6.424;2022-08-19T02:39:28;16.40;99.90
53878;DHT22;39790;53.144;6.424;2022-08-19T02:41:54;16.50;99.90
53878;DHT22;39790;53.144;6.424;2022-08-19T02:44:19;16.50;99.90
53878;DHT22;39790;53.144;6.424;2022-08-19T02:46:46;16.50;99.90
53878;DHT22;39790;53.144;6.424;2022-08-19T02:49:13;16.50;99.90
53878;DHT22;39790;53.144;6.424;2022-08-19T02:51:43;16.40;99.90
53878;DHT22;39790;53.144;6.424;2022-08-19T02:54:10;16.30;99.90
53878;DHT22;39790;53.144;6.424;2022-08-19T02:56:38;16.30;99.90
53878;DHT22;39790;53.144;6.424;2022-08-19T02:59:04;16.30;99.90
53878;DHT22;39790;53.144;6.424;2022-08-19T03:01:36;16.30;99.90
53878;DHT22;39790;53.144;6.424;2022-08-19T03:04:04;16.30;99.90
53878;DHT22;39790;53.144;6.424;2022-08-19T03:06:30;16.30;99.90
53878;DHT22;39790;53.144;6.424;2022-08-19T03:08:57;16.30;99.90
53878;DHT22;39790;53.144;6.424;2022-08-19T03:11:29;16.30;99.90
53878;DHT22;39790;53.144;6.424;2022-08-19T03:13:56;16.50;99.90
53878;DHT22;39790;53.144;6.424;2022-08-19T03:16:24;16.40;99.90
53878;DHT22;39790;53.144;6.424;2022-08-19T03:18:50;16.40;99.90
53878;DHT22;39790;53.144;6.424;2022-08-19T03:21:21;16.40;99.90
53878;DHT22;39790;53.144;6.424;2022-08-19T03:23:47;16.30;99.90
53878;DHT22;39790;53.144;6.424;2022-08-19T03:26:13;16.30;99.90
53878;DHT22;39790;53.144;6.424;2022-08-19T03:28:45;16.30;99.90
53878;DHT22;39790;53.144;6.424;2022-08-19T03:31:16;16.30;99.90
53878;DHT22;39790;53.144;6.424;2022-08-19T03:33:43;16.30;99.90
53878;DHT22;39790;53.144;6.424;2022-08-19T03:36:15;16.30;99.90
53878;DHT22;39790;53.144;6.424;2022-08-19T03:38:46;16.20;99.90
53878;DHT22;39790;53.144;6.424;2022-08-19T03:41:19;16.20;99.90
53878;DHT22;39790;53.144;6.424;2022-08-19T03:43:45;16.20;99.90
53878;DHT22;39790;53.144;6.424;2022-08-19T03:46:18;16.20;99.90
53878;DHT22;39790;53.144;6.424;2022-08-19T03:48:48;16.20;99.90
53878;DHT22;39790;53.144;6.424;2022-08-19T03:51:29;16.20;99.90
53878;DHT22;39790;53.144;6.424;2022-08-19T03:53:57;16.20;99.90
53878;DHT22;39790;53.144;6.424;2022-08-19T03:56:24;16.20;99.90
53878;DHT22;39790;53.144;6.424;2022-08-19T03:58:54;16.20;99.90
53878;DHT22;39790;53.144;6.424;2022-08-19T04:01:22;16.20;99.90
53878;DHT22;39790;53.144;6.424;2022-08-19T04:03:48;16.20;99.90
53878;DHT22;39790;53.144;6.424;2022-08-19T04:06:19;16.20;99.90
53878;DHT22;39790;53.144;6.424;2022-08-19T04:08:48;16.20;99.90
53878;DHT22;39790;53.144;6.424;2022-08-19T04:11:17;16.30;99.90
53878;DHT22;39790;53.144;6.424;2022-08-19T04:13:42;16.20;99.90
53878;DHT22;39790;53.144;6.424;2022-08-19T04:16:10;16.20;99.90
53878;DHT22;39790;53.144;6.424;2022-08-19T04:18:37;16.20;99.90
53878;DHT22;39790;53.144;6.424;2022-08-19T04:21:04;16.20;99.90
53878;DHT22;39790;53.144;6.424;2022-08-19T04:23:30;16.10;99.90
53878;DHT22;39790;53.144;6.424;2022-08-19T04:25:57;16.00;99.90
53878;DHT22;39790;53.144;6.424;2022-08-19T04:28:23;16.00;99.90
53878;DHT22;39790;53.144;6.424;2022-08-19T04:30:52;16.00;99.90
53878;DHT22;39790;53.144;6.424;2022-08-19T04:33:20;16.00;99.90
53878;DHT22;39790;53.144;6.424;2022-08-19T04:35:48;16.00;99.90
53878;DHT22;39790;53.144;6.424;2022-08-19T04:38:16;16.10;99.90
53878;DHT22;39790;53.144;6.424;2022-08-19T04:40:47;16.10;99.90
53878;DHT22;39790;53.144;6.424;2022-08-19T04:43:33;16.20;99.90
53878;DHT22;39790;53.144;6.424;2022-08-19T04:46:07;16.10;99.90
53878;DHT22;39790;53.144;6.424;2022-08-19T04:48:34;16.00;99.90
53878;DHT22;39790;53.144;6.424;2022-08-19T04:51:00;15.90;99.90
53878;DHT22;39790;53.144;6.424;2022-08-19T04:53:31;15.90;99.90
53878;DHT22;39790;53.144;6.424;2022-08-19T04:55:58;16.00;99.90
53878;DHT22;39790;53.144;6.424;2022-08-19T04:58:26;16.00;99.90
53878;DHT22;39790;53.144;6.424;2022-08-19T05:00:52;16.00;99.90
53878;DHT22;39790;53.144;6.424;2022-08-19T05:03:18;16.00;99.90
53878;DHT22;39790;53.144;6.424;2022-08-19T05:05:45;16.10;99.90
53878;DHT22;39790;53.144;6.424;2022-08-19T05:08:16;16.10;99.90
53878;DHT22;39790;53.144;6.424;2022-08-19T05:10:47;16.00;99.90
53878;DHT22;39790;53.144;6.424;2022-08-19T05:13:13;16.20;99.90
53878;DHT22;39790;53.144;6.424;2022-08-19T05:15:40;16.20;99.90
53878;DHT22;39790;53.144;6.424;2022-08-19T05:18:06;16.20;99.90
53878;DHT22;39790;53.144;6.424;2022-08-19T05:20:50;16.30;99.90
53878;DHT22;39790;53.144;6.424;2022-08-19T05:23:34;16.40;99.90
53878;DHT22;39790;53.144;6.424;2022-08-19T05:26:00;16.50;99.90
53878;DHT22;39790;53.144;6.424;2022-08-19T05:28:26;16.60;99.90
53878;DHT22;39790;53.144;6.424;2022-08-19T05:30:53;16.70;99.90
53878;DHT22;39790;53.144;6.424;2022-08-19T05:33:21;16.70;99.90
53878;DHT22;39790;53.144;6.424;2022-08-19T05:35:47;16.80;99.90
53878;DHT22;39790;53.144;6.424;2022-08-19T05:38:16;16.90;99.90
53878;DHT22;39790;53.144;6.424;2022-08-19T05:40:42;17.00;99.90
53878;DHT22;39790;53.144;6.424;2022-08-19T05:43:12;17.10;99.90
53878;DHT22;39790;53.144;6.424;2022-08-19T05:45:41;17.20;99.90
53878;DHT22;39790;53.144;6.424;2022-08-19T05:48:08;17.30;99.90
53878;DHT22;39790;53.144;6.424;2022-08-19T05:50:37;17.50;99.90
53878;DHT22;39790;53.144;6.424;2022-08-19T05:53:03;17.60;99.90
53878;DHT22;39790;53.144;6.424;2022-08-19T05:55:29;17.80;99.90
53878;DHT22;39790;53.144;6.424;2022-08-19T05:57:54;17.90;99.90
53878;DHT22;39790;53.144;6.424;2022-08-19T06:00:20;18.00;99.90
53878;DHT22;39790;53.144;6.424;2022-08-19T06:02:45;18.20;99.90
53878;DHT22;39790;53.144;6.424;2022-08-19T06:05:11;18.30;99.90
53878;DHT22;39790;53.144;6.424;2022-08-19T06:07:38;18.50;99.90
53878;DHT22;39790;53.144;6.424;2022-08-19T06:10:07;18.70;99.90
53878;DHT22;39790;53.144;6.424;2022-08-19T06:12:34;19.00;99.90
53878;DHT22;39790;53.144;6.424;2022-08-19T06:15:03;19.40;99.90
53878;DHT22;39790;53.144;6.424;2022-08-19T06:17:29;20.10;99.90
53878;DHT22;39790;53.144;6.424;2022-08-19T06:19:56;21.10;99.90
53878;DHT22;39790;53.144;6.424;2022-08-19T06:22:22;22.20;99.90
53878;DHT22;39790;53.144;6.424;2022-08-19T06:24:47;23.30;99.90
53878;DHT22;39790;53.144;6.424;2022-08-19T06:27:13;24.30;99.90
53878;DHT22;39790;53.144;6.424;2022-08-19T06:29:39;25.40;99.90
53878;DHT22;39790;53.144;6.424;2022-08-19T06:32:04;26.40;99.90
53878;DHT22;39790;53.144;6.424;2022-08-19T06:34:33;27.30;99.90
53878;DHT22;39790;53.144;6.424;2022-08-19T06:37:00;28.20;98.90
53878;DHT22;39790;53.144;6.424;2022-08-19T06:39:44;28.90;97.40
53878;DHT22;39790;53.144;6.424;2022-08-19T06:42:12;29.60;95.00
53878;DHT22;39790;53.144;6.424;2022-08-19T06:44:43;30.20;94.70
53878;DHT22;39790;53.144;6.424;2022-08-19T06:47:11;30.50;93.40
53878;DHT22;39790;53.144;6.424;2022-08-19T06:49:38;30.80;92.50
53878;DHT22;39790;53.144;6.424;2022-08-19T06:52:05;31.10;91.50
53878;DHT22;39790;53.144;6.424;2022-08-19T06:54:31;31.50;90.70
53878;DHT22;39790;53.144;6.424;2022-08-19T06:57:00;31.90;89.60
53878;DHT22;39790;53.144;6.424;2022-08-19T06:59:30;32.20;87.60
53878;DHT22;39790;53.144;6.424;2022-08-19T07:01:57;32.30;86.40
53878;DHT22;39790;53.144;6.424;2022-08-19T07:04:27;32.50;85.10
53878;DHT22;39790;53.144;6.424;2022-08-19T07:07:08;32.80;83.60
53878;DHT22;39790;53.144;6.424;2022-08-19T07:09:39;33.10;82.30
53878;DHT22;39790;53.144;6.424;2022-08-19T07:12:08;33.30;80.80
53878;DHT22;39790;53.144;6.424;2022-08-19T07:14:35;33.60;79.80
53878;DHT22;39790;53.144;6.424;2022-08-19T07:17:04;33.80;78.50
53878;DHT22;39790;53.144;6.424;2022-08-19T07:19:30;34.00;77.70
53878;DHT22;39790;53.144;6.424;2022-08-19T07:21:57;34.00;76.70
53878;DHT22;39790;53.144;6.424;2022-08-19T07:24:25;34.10;76.20
53878;DHT22;39790;53.144;6.424;2022-08-19T07:26:53;34.30;75.50
53878;DHT22;39790;53.144;6.424;2022-08-19T07:29:20;34.40;74.60
53878;DHT22;39790;53.144;6.424;2022-08-19T07:31:49;34.70;73.80
53878;DHT22;39790;53.144;6.424;2022-08-19T07:34:15;35.00;72.80
53878;DHT22;39790;53.144;6.424;2022-08-19T07:36:42;35.10;72.20
53878;DHT22;39790;53.144;6.424;2022-08-19T07:39:12;35.10;71.60
53878;DHT22;39790;53.144;6.424;2022-08-19T07:41:38;35.10;71.00
53878;DHT22;39790;53.144;6.424;2022-08-19T07:44:05;35.10;70.60
53878;DHT22;39790;53.144;6.424;2022-08-19T07:46:34;35.10;70.00
53878;DHT22;39790;53.144;6.424;2022-08-19T07:49:00;35.00;69.60
53878;DHT22;39790;53.144;6.424;2022-08-19T07:51:27;34.90;69.60
53878;DHT22;39790;53.144;6.424;2022-08-19T07:53:53;35.00;69.90
53878;DHT22;39790;53.144;6.424;2022-08-19T07:56:21;35.00;69.20
53878;DHT22;39790;53.144;6.424;2022-08-19T07:58:49;35.20;69.20
53878;DHT22;39790;53.144;6.424;2022-08-19T08:01:19;35.30;68.70
53878;DHT22;39790;53.144;6.424;2022-08-19T08:03:46;35.50;68.40
53878;DHT22;39790;53.144;6.424;2022-08-19T08:06:31;35.80;67.80
53878;DHT22;39790;53.144;6.424;2022-08-19T08:09:18;35.90;67.30
53878;DHT22;39790;53.144;6.424;2022-08-19T08:11:57;35.90;67.70
53878;DHT22;39790;53.144;6.424;2022-08-19T08:14:26;36.10;67.40
53878;DHT22;39790;53.144;6.424;2022-08-19T08:16:53;36.10;66.80
53878;DHT22;39790;53.144;6.424;2022-08-19T08:19:20;36.30;66.30
53878;DHT22;39790;53.144;6.424;2022-08-19T08:21:47;36.50;65.10
53878;DHT22;39790;53.144;6.424;2022-08-19T08:24:13;36.60;64.50
53878;DHT22;39790;53.144;6.424;2022-08-19T08:26:39;36.60;64.10
53878;DHT22;39790;53.144;6.424;2022-08-19T08:29:06;36.60;63.90
53878;DHT22;39790;53.144;6.424;2022-08-19T08:31:35;36.60;63.90
53878;DHT22;39790;53.144;6.424;2022-08-19T08:34:02;36.50;64.30
53878;DHT22;39790;53.144;6.424;2022-08-19T08:36:28;36.50;64.20
53878;DHT22;39790;53.144;6.424;2022-08-19T08:38:54;36.50;63.70
53878;DHT22;39790;53.144;6.424;2022-08-19T08:43:52;36.40;64.00
53878;DHT22;39790;53.144;6.424;2022-08-19T08:46:27;36.50;63.50
53878;DHT22;39790;53.144;6.424;2022-08-19T08:51:42;36.60;62.70
53878;DHT22;39790;53.144;6.424;2022-08-19T08:54:11;36.70;60.50
53878;DHT22;39790;53.144;6.424;2022-08-19T08:56:44;36.70;62.10
53878;DHT22;39790;53.144;6.424;2022-08-19T09:01:44;36.60;60.90
53878;DHT22;39790;53.144;6.424;2022-08-19T09:04:12;36.60;61.00
53878;DHT22;39790;53.144;6.424;2022-08-19T09:09:34;36.80;61.10
53878;DHT22;39790;53.144;6.424;2022-08-19T09:14:52;36.90;60.40
53878;DHT22;39790;53.144;6.424;2022-08-19T09:17:25;36.90;60.10
53878;DHT22;39790;53.144;6.424;2022-08-19T09:20:20;36.80;60.60
53878;DHT22;39790;53.144;6.424;2022-08-19T09:22:46;36.80;59.80
53878;DHT22;39790;53.144;6.424;2022-08-19T09:25:16;36.70;60.60
53878;DHT22;39790;53.144;6.424;2022-08-19T09:27:43;36.70;60.30
53878;DHT22;39790;53.144;6.424;2022-08-19T09:30:18;36.90;59.90
53878;DHT22;39790;53.144;6.424;2022-08-19T09:32:45;36.80;60.10
53878;DHT22;39790;53.144;6.424;2022-08-19T09:35:12;36.70;60.10
53878;DHT22;39790;53.144;6.424;2022-08-19T09:37:38;36.60;59.70
53878;DHT22;39790;53.144;6.424;2022-08-19T09:40:04;36.60;59.60
53878;DHT22;39790;53.144;6.424;2022-08-19T09:42:30;36.50;59.10
53878;DHT22;39790;53.144;6.424;2022-08-19T09:44:55;36.50;59.10
53878;DHT22;39790;53.144;6.424;2022-08-19T09:47:21;36.50;59.10
53878;DHT22;39790;53.144;6.424;2022-08-19T09:49:46;36.60;59.30
53878;DHT22;39790;53.144;6.424;2022-08-19T09:52:14;36.70;59.30
53878;DHT22;39790;53.144;6.424;2022-08-19T09:54:40;36.70;59.10
53878;DHT22;39790;53.144;6.424;2022-08-19T09:57:06;36.60;59.00
53878;DHT22;39790;53.144;6.424;2022-08-19T09:59:32;36.60;59.30
53878;DHT22;39790;53.144;6.424;2022-08-19T10:01:58;36.60;59.20
53878;DHT22;39790;53.144;6.424;2022-08-19T10:04:24;36.70;58.50
53878;DHT22;39790;53.144;6.424;2022-08-19T10:07:10;36.60;58.00
53878;DHT22;39790;53.144;6.424;2022-08-19T10:09:36;36.40;58.50
53878;DHT22;39790;53.144;6.424;2022-08-19T10:12:03;36.30;58.60
53878;DHT22;39790;53.144;6.424;2022-08-19T10:14:30;36.10;58.90
53878;DHT22;39790;53.144;6.424;2022-08-19T10:16:56;36.10;58.80
53878;DHT22;39790;53.144;6.424;2022-08-19T10:19:22;36.00;58.90
53878;DHT22;39790;53.144;6.424;2022-08-19T10:21:47;35.50;59.30
53878;DHT22;39790;53.144;6.424;2022-08-19T10:24:13;35.30;60.20
53878;DHT22;39790;53.144;6.424;2022-08-19T10:26:40;35.30;61.10
53878;DHT22;39790;53.144;6.424;2022-08-19T10:29:09;35.50;60.20
53878;DHT22;39790;53.144;6.424;2022-08-19T10:31:37;35.70;60.30
53878;DHT22;39790;53.144;6.424;2022-08-19T10:34:03;35.80;60.30
53878;DHT22;39790;53.144;6.424;2022-08-19T10:36:32;35.90;60.20
53878;DHT22;39790;53.144;6.424;2022-08-19T10:38:59;35.70;59.20
53878;DHT22;39790;53.144;6.424;2022-08-19T10:41:31;35.60;59.40
53878;DHT22;39790;53.144;6.424;2022-08-19T10:44:01;35.60;58.90
53878;DHT22;39790;53.144;6.424;2022-08-19T10:46:28;35.80;58.90
53878;DHT22;39790;53.144;6.424;2022-08-19T10:48:58;35.90;58.70
53878;DHT22;39790;53.144;6.424;2022-08-19T10:51:24;36.10;58.90
53878;DHT22;39790;53.144;6.424;2022-08-19T10:54:08;35.50;59.40
53878;DHT22;39790;53.144;6.424;2022-08-19T10:56:34;34.70;60.20
53878;DHT22;39790;53.144;6.424;2022-08-19T10:59:20;34.50;61.00
53878;DHT22;39790;53.144;6.424;2022-08-19T11:01:48;34.20;61.40
53878;DHT22;39790;53.144;6.424;2022-08-19T11:04:14;33.70;61.70
53878;DHT22;39790;53.144;6.424;2022-08-19T11:06:45;33.60;61.90
53878;DHT22;39790;53.144;6.424;2022-08-19T11:09:13;33.80;62.50
53878;DHT22;39790;53.144;6.424;2022-08-19T11:11:39;33.70;62.60
53878;DHT22;39790;53.144;6.424;2022-08-19T11:14:11;33.30;63.00
53878;DHT22;39790;53.144;6.424;2022-08-19T11:16:37;33.30;64.20
53878;DHT22;39790;53.144;6.424;2022-08-19T11:19:05;33.00;64.00
53878;DHT22;39790;53.144;6.424;2022-08-19T11:21:35;32.60;64.30
53878;DHT22;39790;53.144;6.424;2022-08-19T11:24:06;32.10;65.00
53878;DHT22;39790;53.144;6.424;2022-08-19T11:26:33;31.70;64.80
53878;DHT22;39790;53.144;6.424;2022-08-19T11:28:59;31.40;65.20
53878;DHT22;39790;53.144;6.424;2022-08-19T11:31:31;31.30;65.80
53878;DHT22;39790;53.144;6.424;2022-08-19T11:33:59;31.20;66.00
53878;DHT22;39790;53.144;6.424;2022-08-19T11:36:25;31.10;65.10
53878;DHT22;39790;53.144;6.424;2022-08-19T11:38:52;31.00;65.30
53878;DHT22;39790;53.144;6.424;2022-08-19T11:41:19;30.90;64.90
53878;DHT22;39790;53.144;6.424;2022-08-19T11:43:45;30.90;65.00
53878;DHT22;39790;53.144;6.424;2022-08-19T11:46:14;30.80;65.30
53878;DHT22;39790;53.144;6.424;2022-08-19T11:48:40;30.60;65.80
53878;DHT22;39790;53.144;6.424;2022-08-19T11:51:08;30.50;65.40
53878;DHT22;39790;53.144;6.424;2022-08-19T11:53:35;30.40;65.80
53878;DHT22;39790;53.144;6.424;2022-08-19T11:56:02;30.20;66.50
53878;DHT22;39790;53.144;6.424;2022-08-19T11:58:29;30.00;66.60
53878;DHT22;39790;53.144;6.424;2022-08-19T12:00:54;29.90;67.70
53878;DHT22;39790;53.144;6.424;2022-08-19T12:03:20;29.70;68.50
53878;DHT22;39790;53.144;6.424;2022-08-19T12:05:46;29.60;68.60
53878;DHT22;39790;53.144;6.424;2022-08-19T12:08:12;29.50;68.90
53878;DHT22;39790;53.144;6.424;2022-08-19T12:10:39;29.40;68.90
53878;DHT22;39790;53.144;6.424;2022-08-19T12:13:05;29.40;68.70
53878;DHT22;39790;53.144;6.424;2022-08-19T12:15:38;29.60;69.00
53878;DHT22;39790;53.144;6.424;2022-08-19T12:18:07;29.90;69.00
53878;DHT22;39790;53.144;6.424;2022-08-19T12:20:35;30.00;68.70
53878;DHT22;39790;53.144;6.424;2022-08-19T12:23:02;30.20;68.20
53878;DHT22;39790;53.144;6.424;2022-08-19T12:25:27;30.20;68.30
53878;DHT22;39790;53.144;6.424;2022-08-19T12:27:53;30.20;67.90
53878;DHT22;39790;53.144;6.424;2022-08-19T12:30:18;30.20;67.60
53878;DHT22;39790;53.144;6.424;2022-08-19T12:32:44;30.10;67.40
53878;DHT22;39790;53.144;6.424;2022-08-19T12:35:09;30.00;68.00
53878;DHT22;39790;53.144;6.424;2022-08-19T12:37:36;29.90;69.00
53878;DHT22;39790;53.144;6.424;2022-08-19T12:40:01;29.90;69.40
53878;DHT22;39790;53.144;6.424;2022-08-19T12:42:28;29.80;70.10
53878;DHT22;39790;53.144;6.424;2022-08-19T12:44:55;29.70;69.90
53878;DHT22;39790;53.144;6.424;2022-08-19T12:47:20;29.70;69.90
53878;DHT22;39790;53.144;6.424;2022-08-19T12:49:46;29.70;69.70
53878;DHT22;39790;53.144;6.424;2022-08-19T12:52:13;29.60;69.90
53878;DHT22;39790;53.144;6.424;2022-08-19T12:54:41;29.50;70.00
53878;DHT22;39790;53.144;6.424;2022-08-19T12:57:09;29.40;70.40
53878;DHT22;39790;53.144;6.424;2022-08-19T12:59:35;29.30;71.00
53878;DHT22;39790;53.144;6.424;2022-08-19T13:02:06;29.20;71.80
53878;DHT22;39790;53.144;6.424;2022-08-19T13:04:33;29.00;72.80
53878;DHT22;39790;53.144;6.424;2022-08-19T13:07:06;28.90;73.90
53878;DHT22;39790;53.144;6.424;2022-08-19T13:09:32;28.90;74.80
53878;DHT22;39790;53.144;6.424;2022-08-19T13:11:58;28.90;75.60
53878;DHT22;39790;53.144;6.424;2022-08-19T13:14:27;28.80;76.00
53878;DHT22;39790;53.144;6.424;2022-08-19T13:16:56;28.70;76.50
53878;DHT22;39790;53.144;6.424;2022-08-19T13:19:22;28.70;76.70
53878;DHT22;39790;53.144;6.424;2022-08-19T13:21:50;28.70;76.90
53878;DHT22;39790;53.144;6.424;2022-08-19T13:24:16;28.70;76.60
53878;DHT22;39790;53.144;6.424;2022-08-19T13:26:42;28.70;76.70
53878;DHT22;39790;53.144;6.424;2022-08-19T13:29:07;28.60;76.50
53878;DHT22;39790;53.144;6.424;2022-08-19T13:31:56;28.50;77.10
53878;DHT22;39790;53.144;6.424;2022-08-19T13:34:40;28.30;76.70
53878;DHT22;39790;53.144;6.424;2022-08-19T13:37:05;28.10;77.10
53878;DHT22;39790;53.144;6.424;2022-08-19T13:39:33;27.90;77.40
53878;DHT22;39790;53.144;6.424;2022-08-19T13:41:59;27.70;77.90
53878;DHT22;39790;53.144;6.424;2022-08-19T13:44:26;27.60;78.30
53878;DHT22;39790;53.144;6.424;2022-08-19T13:46:55;27.50;78.80
53878;DHT22;39790;53.144;6.424;2022-08-19T13:49:27;27.50;79.10
53878;DHT22;39790;53.144;6.424;2022-08-19T13:51:53;27.40;79.50
53878;DHT22;39790;53.144;6.424;2022-08-19T13:54:18;27.20;80.10
53878;DHT22;39790;53.144;6.424;2022-08-19T13:56:44;27.20;80.70
53878;DHT22;39790;53.144;6.424;2022-08-19T13:59:10;27.10;81.20
53878;DHT22;39790;53.144;6.424;2022-08-19T14:01:36;26.90;81.80
53878;DHT22;39790;53.144;6.424;2022-08-19T14:04:03;26.80;82.40
53878;DHT22;39790;53.144;6.424;2022-08-19T14:06:29;26.80;83.00
53878;DHT22;39790;53.144;6.424;2022-08-19T14:08:54;26.80;83.30
53878;DHT22;39790;53.144;6.424;2022-08-19T14:11:20;26.80;83.70
53878;DHT22;39790;53.144;6.424;2022-08-19T14:13:48;26.80;83.70
53878;DHT22;39790;53.144;6.424;2022-08-19T14:16:14;26.90;83.90
53878;DHT22;39790;53.144;6.424;2022-08-19T14:18:40;26.90;84.40
53878;DHT22;39790;53.144;6.424;2022-08-19T14:21:07;27.00;84.40
53878;DHT22;39790;53.144;6.424;2022-08-19T14:23:34;27.10;84.60
53878;DHT22;39790;53.144;6.424;2022-08-19T14:26:10;27.20;84.70
53878;DHT22;39790;53.144;6.424;2022-08-19T14:28:38;27.20;84.70
53878;DHT22;39790;53.144;6.424;2022-08-19T14:31:04;27.30;83.80
53878;DHT22;39790;53.144;6.424;2022-08-19T14:33:30;27.20;83.20
53878;DHT22;39790;53.144;6.424;2022-08-19T14:35:55;27.20;82.90
53878;DHT22;39790;53.144;6.424;2022-08-19T14:38:21;27.20;83.10
53878;DHT22;39790;53.144;6.424;2022-08-19T14:40:47;27.20;83.20
53878;DHT22;39790;53.144;6.424;2022-08-19T14:43:14;27.30;83.40
53878;DHT22;39790;53.144;6.424;2022-08-19T14:45:40;27.40;83.60
53878;DHT22;39790;53.144;6.424;2022-08-19T14:48:07;27.40;83.90
53878;DHT22;39790;53.144;6.424;2022-08-19T14:50:34;27.50;84.10
53878;DHT22;39790;53.144;6.424;2022-08-19T14:53:04;27.60;84.30
53878;DHT22;39790;53.144;6.424;2022-08-19T14:55:31;27.70;83.70
53878;DHT22;39790;53.144;6.424;2022-08-19T14:57:57;27.70;81.70
53878;DHT22;39790;53.144;6.424;2022-08-19T15:00:23;27.80;80.80
53878;DHT22;39790;53.144;6.424;2022-08-19T15:02:50;27.80;80.90
53878;DHT22;39790;53.144;6.424;2022-08-19T15:05:15;27.90;80.70
53878;DHT22;39790;53.144;6.424;2022-08-19T15:07:42;28.00;80.00
53878;DHT22;39790;53.144;6.424;2022-08-19T15:10:09;28.10;79.20
53878;DHT22;39790;53.144;6.424;2022-08-19T15:12:35;28.20;78.70
53878;DHT22;39790;53.144;6.424;2022-08-19T15:15:02;28.20;78.50
53878;DHT22;39790;53.144;6.424;2022-08-19T15:17:28;28.20;78.60
53878;DHT22;39790;53.144;6.424;2022-08-19T15:19:55;28.10;78.90
53878;DHT22;39790;53.144;6.424;2022-08-19T15:22:21;28.00;79.10
53878;DHT22;39790;53.144;6.424;2022-08-19T15:24:47;28.00;79.00
53878;DHT22;39790;53.144;6.424;2022-08-19T15:27:13;28.10;79.30
53878;DHT22;39790;53.144;6.424;2022-08-19T15:29:39;28.10;79.20
53878;DHT22;39790;53.144;6.424;2022-08-19T15:32:06;28.00;79.40
53878;DHT22;39790;53.144;6.424;2022-08-19T15:34:33;28.00;79.40
53878;DHT22;39790;53.144;6.424;2022-08-19T15:36:59;28.00;79.80
53878;DHT22;39790;53.144;6.424;2022-08-19T15:39:25;27.90;80.10
53878;DHT22;39790;53.144;6.424;2022-08-19T15:41:50;27.90;80.40
53878;DHT22;39790;53.144;6.424;2022-08-19T15:44:17;27.80;80.60
53878;DHT22;39790;53.144;6.424;2022-08-19T15:46:45;27.80;80.70
53878;DHT22;39790;53.144;6.424;2022-08-19T15:49:18;27.70;80.80